Genesis — D5DL4 — position and weather

sailwx.info

Track history (hours):
 
Tides and Currents Weather Stations Pressure Air Temp Water Temp Dewpoint Dewpoint Depression Visibility Wind Speed Wind Dir Waves Ship Positions

Genesis

Last reported at 2018-May-24 22:56 UTC. Time now 2018-May-24 23:20 UTC.
Position N 39°53' W 075°11'.

Length 229 m; draft 7.9 m.

Type: Cargo ship. MMSI: 636015907.

Date/timePositionNaut miles runAvg speedWind from/ knotsBaromVisibWave heightAir tempDewpointWater temp
2018-May-24 22:56N 39°53' W 075°11'0 0.0
2018-May-24 22:29N 39°53' W 075°11'0 0.0
2018-May-24 21:59N 39°53' W 075°11'0 0.0
2018-May-24 21:29N 39°53' W 075°11'0 0.0
2018-May-24 20:59N 39°53' W 075°11'0 0.0
2018-May-24 20:29N 39°53' W 075°11'0 0.0
2018-May-24 19:59N 39°53' W 075°11'0 0.0
2018-May-24 19:29N 39°53' W 075°11'0 0.0
2018-May-24 18:59N 39°53' W 075°11'0 0.0
2018-May-24 18:29N 39°53' W 075°11'0 0.0
2018-May-24 17:56N 39°53' W 075°11'0 0.0
2018-May-24 17:29N 39°53' W 075°11'0 0.0
2018-May-24 16:59N 39°53' W 075°11'0 0.0
2018-May-24 16:29N 39°53' W 075°11'0 0.0
2018-May-24 15:59N 39°53' W 075°11'0 0.0
2018-May-24 15:26N 39°53' W 075°11'0 0.0
2018-May-24 14:59N 39°53' W 075°11'0 0.0
2018-May-24 14:29N 39°53' W 075°11'0 0.4
2018-May-24 13:59N 39°53' W 075°11'1 2.1
2018-May-24 13:29N 39°53' W 075°12'1 0.2
2018-May-24 08:59N 39°52' W 075°13'0 0.0
2018-May-24 08:29N 39°52' W 075°13'0 0.0
2018-May-24 07:56N 39°52' W 075°13'0 0.0
2018-May-24 07:29N 39°52' W 075°13'0 0.0
2018-May-24 06:59N 39°52' W 075°13'0 0.0
2018-May-24 06:26N 39°52' W 075°13'0 0.0
2018-May-24 05:59N 39°52' W 075°13'0 0.0
2018-May-24 05:29N 39°52' W 075°13'0 0.0
2018-May-24 04:59N 39°52' W 075°13'0 0.0
2018-May-24 04:29N 39°52' W 075°13'0 0.0
2018-May-24 03:59N 39°52' W 075°13'0 0.1
2018-May-24 03:29N 39°52' W 075°13'0 0.4
2018-May-24 02:59N 39°52' W 075°13'0 0.2
2018-May-24 02:29N 39°52' W 075°13'0 0.0
2018-May-24 01:59N 39°52' W 075°13'0 0.0
2018-May-24 01:29N 39°52' W 075°13'0 0.0
2018-May-24 00:56N 39°52' W 075°13'0 0.5
2018-May-24 00:29N 39°52' W 075°13'0 0.7
2018-May-24 00:00N 39°52' W 075°13'3 5.6
2018-May-23 23:30N 39°51' W 075°17'4 7.3
2018-May-23 23:00N 39°50' W 075°21'4 8.2
2018-May-23 22:30N 39°48' W 075°26'4 8.6
2018-May-23 22:00N 39°45' W 075°30'4 8.6
2018-May-23 21:30N 39°41' W 075°31'4 8.5
2018-May-23 21:00N 39°37' W 075°35'4 8.1
2018-May-23 20:30N 39°34' W 075°33'4 7.7
2018-May-23 20:00N 39°30' W 075°33'3 7.0
2018-May-23 19:30N 39°26' W 075°33'4 7.4
2018-May-23 19:00N 39°24' W 075°29'3 6.7
2018-May-23 18:30N 39°21' W 075°26'3 6.2
2018-May-23 18:00N 39°19' W 075°24'3 6.0
2018-May-23 17:31N 39°17' W 075°21'3 5.7
2018-May-23 17:00N 39°15' W 075°19'2 4.7
2018-May-23 16:30N 39°13' W 075°17'2 4.9
2018-May-23 16:00N 39°10' W 075°16'4 5.2
2018-May-23 15:17N 39°07' W 075°13'1 5.2
2018-May-23 15:00N 39°06' W 075°12'3 5.0
2018-May-23 14:30N 39°04' W 075°10'3 5.2
2018-May-23 14:00N 39°01' W 075°09'3 5.3
2018-May-23 13:30N 38°59' W 075°08'31 3.1
2018-May-23 03:39N 38°49' W 074°31'2 5.2
2018-May-23 03:14N 38°49' W 074°28'2 5.2
2018-May-23 02:56N 38°49' W 074°26'5 0.8
2018-May-22 20:38N 38°51' W 074°20'1 4.8
2018-May-22 20:30N 38°51' W 074°19'2 4.9
2018-May-22 20:00N 38°51' W 074°16'3 5.0
2018-May-22 19:30N 38°51' W 074°13'2 4.1
2018-May-22 19:00N 38°49' W 074°12'3 5.6
2018-May-22 18:30N 38°47' W 074°12'3 5.5
2018-May-22 18:00N 38°44' W 074°13'2 4.9
2018-May-22 17:30N 38°42' W 074°15'2 4.4
2018-May-22 17:00N 38°42' W 074°18'2 4.3
2018-May-22 16:30N 38°42' W 074°20'2 4.2
2018-May-22 16:00N 38°42' W 074°23'2 4.2
2018-May-22 15:30N 38°44' W 074°23'2 5.0
2018-May-22 15:00N 38°46' W 074°22'2 5.0
2018-May-22 14:30N 38°49' W 074°22'2 5.0
2018-May-22 14:01N 38°51' W 074°21'2 4.7
2018-May-22 13:31N 38°53' W 074°20'3 5.5
2018-May-22 13:01N 38°53' W 074°16'3 5.5
2018-May-22 12:30N 38°53' W 074°12'2 3.4
2018-May-22 12:01N 38°52' W 074°11'3 5.0
2018-May-22 11:30N 38°50' W 074°12'2 4.8
2018-May-22 11:00N 38°47' W 074°13'2 4.7
2018-May-22 10:30N 38°45' W 074°14'2 4.7
2018-May-22 10:00N 38°43' W 074°15'2 4.6
2018-May-22 09:30N 38°41' W 074°16'2 3.7
2018-May-22 09:00N 38°41' W 074°18'3 5.3
2018-May-22 08:30N 38°43' W 074°18'3 5.3
2018-May-22 08:01N 38°46' W 074°17'3 5.3
2018-May-22 07:31N 38°49' W 074°16'3 5.0
2018-May-22 07:00N 38°51' W 074°16'2 4.9
2018-May-22 06:31N 38°53' W 074°14'3 5.1
2018-May-22 06:00N 38°56' W 074°13'3 5.0
2018-May-22 05:30N 38°58' W 074°12'3 5.0
2018-May-22 05:00N 38°60' W 074°10'3 5.1
2018-May-22 04:30N 39°00' W 074°07'3 5.1
2018-May-22 04:00N 39°01' W 074°03'3 5.2
2018-May-22 03:30N 39°01' W 074°00'3 5.4
2018-May-22 03:00N 39°00' W 073°57'3 5.6
2018-May-22 02:30N 38°60' W 073°53'3 5.5
2018-May-22 02:00N 38°59' W 073°50'3 5.6
2018-May-22 01:30N 38°58' W 073°46'3 5.6
2018-May-22 01:00N 38°58' W 073°43'3 5.5
2018-May-22 00:30N 38°57' W 073°39'2 3.4
2018-May-21 23:57N 38°56' W 073°38'2 4.4
2018-May-21 23:30N 38°55' W 073°40'2 4.5
2018-May-21 23:00N 38°55' W 073°43'2 4.5
2018-May-21 22:27N 38°56' W 073°46'2 4.5
2018-May-21 21:54N 38°55' W 073°49'2 4.6
2018-May-21 21:30N 38°54' W 073°52'3 4.6
2018-May-21 20:57N 38°54' W 073°55'2 4.5
2018-May-21 20:30N 38°53' W 073°57'2 4.5
2018-May-21 20:00N 38°53' W 074°00'2 4.5
2018-May-21 19:29N 38°53' W 074°03'2 4.6
2018-May-21 19:01N 38°52' W 074°06'2 4.6
2018-May-21 18:30N 38°52' W 074°09'2 4.5
2018-May-21 17:58N 38°52' W 074°12'2 4.2
2018-May-21 17:30N 38°53' W 074°14'2 4.5
2018-May-21 16:57N 38°55' W 074°12'3 5.2
2018-May-21 16:27N 38°56' W 074°08'2 5.2
2018-May-21 16:00N 38°57' W 074°06'3 5.2
2018-May-21 15:30N 38°58' W 074°03'3 6.2
2018-May-21 15:00N 38°59' W 073°59'3 5.4
2018-May-21 14:26N 38°60' W 073°55'3 7.1
2018-May-21 14:00N 39°01' W 073°51'4 7.6
2018-May-21 13:31N 39°02' W 073°47'4 7.5
2018-May-21 13:01N 39°03' W 073°42'4 7.6
2018-May-21 12:30N 39°04' W 073°38'5 7.6
2018-May-21 11:55N 39°06' W 073°32'3 7.6
2018-May-21 11:30N 39°07' W 073°28'4 7.5
2018-May-21 10:58N 39°08' W 073°23'4 7.6
2018-May-21 10:26N 39°09' W 073°18'12 7.7
2018-May-21 08:49N 39°13' W 073°03'32 7.4
2018-May-21 04:29N 39°24' W 072°24'  
Track history (hours):
 
Tides and Currents Weather Stations Pressure Air Temp Water Temp Dewpoint Dewpoint Depression Visibility Wind Speed Wind Dir Waves Ship Positions

Genesis

Last reported at 2018-May-24 22:56 UTC. Time now 2018-May-24 23:20 UTC.
Position N 39°53' W 075°11'.

Length 229 m; draft 7.9 m.

Type: Cargo ship. MMSI: 636015907.

Date/timePositionNaut miles runAvg speedWind from/ knotsBaromVisibWave heightAir tempDewpointWater temp
2018-May-24 22:56N 39°53' W 075°11'0 0.0
2018-May-24 22:29N 39°53' W 075°11'0 0.0
2018-May-24 21:59N 39°53' W 075°11'0 0.0
2018-May-24 21:29N 39°53' W 075°11'0 0.0
2018-May-24 20:59N 39°53' W 075°11'0 0.0
2018-May-24 20:29N 39°53' W 075°11'0 0.0
2018-May-24 19:59N 39°53' W 075°11'0 0.0
2018-May-24 19:29N 39°53' W 075°11'0 0.0
2018-May-24 18:59N 39°53' W 075°11'0 0.0
2018-May-24 18:29N 39°53' W 075°11'0 0.0
2018-May-24 17:56N 39°53' W 075°11'0 0.0
2018-May-24 17:29N 39°53' W 075°11'0 0.0
2018-May-24 16:59N 39°53' W 075°11'0 0.0
2018-May-24 16:29N 39°53' W 075°11'0 0.0
2018-May-24 15:59N 39°53' W 075°11'0 0.0
2018-May-24 15:26N 39°53' W 075°11'0 0.0
2018-May-24 14:59N 39°53' W 075°11'0 0.0
2018-May-24 14:29N 39°53' W 075°11'0 0.4
2018-May-24 13:59N 39°53' W 075°11'1 2.1
2018-May-24 13:29N 39°53' W 075°12'1 0.2
2018-May-24 08:59N 39°52' W 075°13'0 0.0
2018-May-24 08:29N 39°52' W 075°13'0 0.0
2018-May-24 07:56N 39°52' W 075°13'0 0.0
2018-May-24 07:29N 39°52' W 075°13'0 0.0
2018-May-24 06:59N 39°52' W 075°13'0 0.0
2018-May-24 06:26N 39°52' W 075°13'0 0.0
2018-May-24 05:59N 39°52' W 075°13'0 0.0
2018-May-24 05:29N 39°52' W 075°13'0 0.0
2018-May-24 04:59N 39°52' W 075°13'0 0.0
2018-May-24 04:29N 39°52' W 075°13'0 0.0
2018-May-24 03:59N 39°52' W 075°13'0 0.1
2018-May-24 03:29N 39°52' W 075°13'0 0.4
2018-May-24 02:59N 39°52' W 075°13'0 0.2
2018-May-24 02:29N 39°52' W 075°13'0 0.0
2018-May-24 01:59N 39°52' W 075°13'0 0.0
2018-May-24 01:29N 39°52' W 075°13'0 0.0
2018-May-24 00:56N 39°52' W 075°13'0 0.5
2018-May-24 00:29N 39°52' W 075°13'0 0.7
2018-May-24 00:00N 39°52' W 075°13'3 5.6
2018-May-23 23:30N 39°51' W 075°17'4 7.3
2018-May-23 23:00N 39°50' W 075°21'4 8.2
2018-May-23 22:30N 39°48' W 075°26'4 8.6
2018-May-23 22:00N 39°45' W 075°30'4 8.6
2018-May-23 21:30N 39°41' W 075°31'4 8.5
2018-May-23 21:00N 39°37' W 075°35'4 8.1
2018-May-23 20:30N 39°34' W 075°33'4 7.7
2018-May-23 20:00N 39°30' W 075°33'3 7.0
2018-May-23 19:30N 39°26' W 075°33'4 7.4
2018-May-23 19:00N 39°24' W 075°29'3 6.7
2018-May-23 18:30N 39°21' W 075°26'3 6.2
2018-May-23 18:00N 39°19' W 075°24'3 6.0
2018-May-23 17:31N 39°17' W 075°21'3 5.7
2018-May-23 17:00N 39°15' W 075°19'2 4.7
2018-May-23 16:30N 39°13' W 075°17'2 4.9
2018-May-23 16:00N 39°10' W 075°16'4 5.2
2018-May-23 15:17N 39°07' W 075°13'1 5.2
2018-May-23 15:00N 39°06' W 075°12'3 5.0
2018-May-23 14:30N 39°04' W 075°10'3 5.2
2018-May-23 14:00N 39°01' W 075°09'3 5.3
2018-May-23 13:30N 38°59' W 075°08'31 3.1
2018-May-23 03:39N 38°49' W 074°31'2 5.2
2018-May-23 03:14N 38°49' W 074°28'2 5.2
2018-May-23 02:56N 38°49' W 074°26'5 0.8
2018-May-22 20:38N 38°51' W 074°20'1 4.8
2018-May-22 20:30N 38°51' W 074°19'2 4.9
2018-May-22 20:00N 38°51' W 074°16'3 5.0
2018-May-22 19:30N 38°51' W 074°13'2 4.1
2018-May-22 19:00N 38°49' W 074°12'3 5.6
2018-May-22 18:30N 38°47' W 074°12'3 5.5
2018-May-22 18:00N 38°44' W 074°13'2 4.9
2018-May-22 17:30N 38°42' W 074°15'2 4.4
2018-May-22 17:00N 38°42' W 074°18'2 4.3
2018-May-22 16:30N 38°42' W 074°20'2 4.2
2018-May-22 16:00N 38°42' W 074°23'2 4.2
2018-May-22 15:30N 38°44' W 074°23'2 5.0
2018-May-22 15:00N 38°46' W 074°22'2 5.0
2018-May-22 14:30N 38°49' W 074°22'2 5.0
2018-May-22 14:01N 38°51' W 074°21'2 4.7
2018-May-22 13:31N 38°53' W 074°20'3 5.5
2018-May-22 13:01N 38°53' W 074°16'3 5.5
2018-May-22 12:30N 38°53' W 074°12'2 3.4
2018-May-22 12:01N 38°52' W 074°11'3 5.0
2018-May-22 11:30N 38°50' W 074°12'2 4.8
2018-May-22 11:00N 38°47' W 074°13'2 4.7
2018-May-22 10:30N 38°45' W 074°14'2 4.7
2018-May-22 10:00N 38°43' W 074°15'2 4.6
2018-May-22 09:30N 38°41' W 074°16'2 3.7
2018-May-22 09:00N 38°41' W 074°18'3 5.3
2018-May-22 08:30N 38°43' W 074°18'3 5.3
2018-May-22 08:01N 38°46' W 074°17'3 5.3
2018-May-22 07:31N 38°49' W 074°16'3 5.0
2018-May-22 07:00N 38°51' W 074°16'2 4.9
2018-May-22 06:31N 38°53' W 074°14'3 5.1
2018-May-22 06:00N 38°56' W 074°13'3 5.0
2018-May-22 05:30N 38°58' W 074°12'3 5.0
2018-May-22 05:00N 38°60' W 074°10'3 5.1
2018-May-22 04:30N 39°00' W 074°07'3 5.1
2018-May-22 04:00N 39°01' W 074°03'3 5.2
2018-May-22 03:30N 39°01' W 074°00'3 5.4
2018-May-22 03:00N 39°00' W 073°57'3 5.6
2018-May-22 02:30N 38°60' W 073°53'3 5.5
2018-May-22 02:00N 38°59' W 073°50'3 5.6
2018-May-22 01:30N 38°58' W 073°46'3 5.6
2018-May-22 01:00N 38°58' W 073°43'3 5.5
2018-May-22 00:30N 38°57' W 073°39'2 3.4
2018-May-21 23:57N 38°56' W 073°38'2 4.4
2018-May-21 23:30N 38°55' W 073°40'2 4.5
2018-May-21 23:00N 38°55' W 073°43'2 4.5
2018-May-21 22:27N 38°56' W 073°46'2 4.5
2018-May-21 21:54N 38°55' W 073°49'2 4.6
2018-May-21 21:30N 38°54' W 073°52'3 4.6
2018-May-21 20:57N 38°54' W 073°55'2 4.5
2018-May-21 20:30N 38°53' W 073°57'2 4.5
2018-May-21 20:00N 38°53' W 074°00'2 4.5
2018-May-21 19:29N 38°53' W 074°03'2 4.6
2018-May-21 19:01N 38°52' W 074°06'2 4.6
2018-May-21 18:30N 38°52' W 074°09'2 4.5
2018-May-21 17:58N 38°52' W 074°12'2 4.2
2018-May-21 17:30N 38°53' W 074°14'2 4.5
2018-May-21 16:57N 38°55' W 074°12'3 5.2
2018-May-21 16:27N 38°56' W 074°08'2 5.2
2018-May-21 16:00N 38°57' W 074°06'3 5.2
2018-May-21 15:30N 38°58' W 074°03'3 6.2
2018-May-21 15:00N 38°59' W 073°59'3 5.4
2018-May-21 14:26N 38°60' W 073°55'3 7.1
2018-May-21 14:00N 39°01' W 073°51'4 7.6
2018-May-21 13:31N 39°02' W 073°47'4 7.5
2018-May-21 13:01N 39°03' W 073°42'4 7.6
2018-May-21 12:30N 39°04' W 073°38'5 7.6
2018-May-21 11:55N 39°06' W 073°32'3 7.6
2018-May-21 11:30N 39°07' W 073°28'4 7.5
2018-May-21 10:58N 39°08' W 073°23'4 7.6
2018-May-21 10:26N 39°09' W 073°18'12 7.7
2018-May-21 08:49N 39°13' W 073°03'32 7.4
2018-May-21 04:29N 39°24' W 072°24'  

Dump ship's entire track history